Time;durP1;ratioP1;P1;durP2;ratioP2;P2;SDS_P1;SDS_P2;PMS_P1;PMS_P2;Temp;Humidity;BMP_temperature;BMP_pressure;BME280_temperature;BME280_humidity;BME280_pressure;Samples;Min_cycle;Max_cycle;Signal;HPM_P1;HPM_P2
2024/03/12 00:00:16;;;;;;;18.50;17.10;;;7.90;1.00;;;;;;4796589;29;20432;-39
2024/03/12 00:02:46;;;;;;;18.60;17.20;;;7.90;1.00;;;;;;4799551;29;20475;-42
2024/03/12 00:05:18;;;;;;;19.20;17.37;;;7.90;1.00;;;;;;4801761;29;20443;-40
2024/03/12 00:07:47;;;;;;;20.20;18.50;;;7.90;99.90;;;;;;4801206;29;20426;-46
2024/03/12 00:10:15;;;;;;;19.13;17.70;;;7.80;1.00;;;;;;4803758;29;20440;-42
2024/03/12 00:12:48;;;;;;;19.63;17.83;;;7.80;99.90;;;;;;4811544;29;20495;-43
2024/03/12 00:15:18;;;;;;;18.70;17.10;;;7.80;99.90;;;;;;4802167;29;20483;-40
2024/03/12 00:17:44;;;;;;;20.17;18.47;;;7.80;1.00;;;;;;4798940;29;20447;-42
2024/03/12 00:20:18;;;;;;;18.63;17.17;;;7.80;1.00;;;;;;4803408;29;20466;-47
2024/03/12 00:22:47;;;;;;;18.87;17.40;;;7.80;1.00;;;;;;4796312;29;20475;-42
2024/03/12 00:25:19;;;;;;;18.80;17.10;;;7.80;1.00;;;;;;4784889;29;20444;-47
2024/03/12 00:27:47;;;;;;;19.27;17.73;;;7.70;1.00;;;;;;4795633;29;20946;-43
2024/03/12 00:30:14;;;;;;;18.70;17.30;;;7.70;1.00;;;;;;4800500;29;20455;-42
2024/03/12 00:32:43;;;;;;;18.20;16.73;;;7.80;99.90;;;;;;4798752;29;20432;-43
2024/03/12 00:35:10;;;;;;;18.40;16.90;;;7.70;1.00;;;;;;4798038;29;20510;-40
2024/03/12 00:37:41;;;;;;;18.80;17.20;;;7.70;1.00;;;;;;4805800;29;20439;-46
2024/03/12 00:40:11;;;;;;;17.70;16.30;;;7.70;1.00;;;;;;4805567;29;20652;-41
2024/03/12 00:42:41;;;;;;;17.87;16.47;;;7.70;99.90;;;;;;4800991;29;20502;-44
2024/03/12 00:45:11;;;;;;;18.60;17.07;;;7.70;99.90;;;;;;4799252;29;20547;-42
2024/03/12 00:47:40;;;;;;;18.63;17.23;;;7.70;99.90;;;;;;4802206;29;20547;-44
2024/03/12 00:50:11;;;;;;;18.13;16.73;;;7.70;99.90;;;;;;4807412;29;20431;-43
2024/03/12 00:52:40;;;;;;;17.60;16.27;;;7.60;1.00;;;;;;4809365;29;20438;-40
2024/03/12 00:55:09;;;;;;;18.43;16.97;;;7.60;1.00;;;;;;4803525;29;20552;-42
2024/03/12 00:57:36;;;;;;;18.00;16.47;;;7.60;1.00;;;;;;4809425;29;20882;-41
2024/03/12 01:00:03;;;;;;;17.80;16.40;;;7.60;99.90;;;;;;4806984;29;20471;-53
2024/03/12 01:02:32;;;;;;;17.33;16.00;;;7.50;99.90;;;;;;4793938;29;20474;-51
2024/03/12 01:04:59;;;;;;;18.93;17.30;;;7.50;1.00;;;;;;4809284;29;20486;-51
2024/03/12 01:07:25;;;;;;;16.83;15.50;;;7.50;1.00;;;;;;4810312;29;20538;-47
2024/03/12 01:09:51;;;;;;;18.93;16.43;;;7.50;1.00;;;;;;4811100;29;22172;-45
2024/03/12 01:12:16;;;;;;;18.33;16.83;;;7.50;1.00;;;;;;4804663;29;20225;-48
2024/03/12 01:14:42;;;;;;;18.20;16.87;;;7.50;1.00;;;;;;4808315;29;20271;-50
2024/03/12 01:17:08;;;;;;;18.23;16.70;;;7.50;1.00;;;;;;4809737;29;20620;-53
2024/03/12 01:19:41;;;;;;;18.17;16.53;;;7.50;99.90;;;;;;4805694;29;20434;-52
2024/03/12 01:22:08;;;;;;;17.70;16.40;;;7.50;43.30;;;;;;4810112;29;20585;-44
2024/03/12 01:24:34;;;;;;;17.77;16.47;;;7.50;1.00;;;;;;4810127;29;20419;-50
2024/03/12 01:27:00;;;;;;;17.20;15.87;;;7.40;99.90;;;;;;4800418;29;21600;-41
2024/03/12 01:29:26;;;;;;;16.80;15.63;;;7.40;1.00;;;;;;4809826;29;20450;-45
2024/03/12 01:31:52;;;;;;;17.00;15.80;;;7.40;1.00;;;;;;4810158;29;20455;-39
2024/03/12 01:34:19;;;;;;;18.27;16.80;;;7.40;1.00;;;;;;4808572;29;20803;-52
2024/03/12 01:36:47;;;;;;;17.93;16.60;;;7.40;1.00;;;;;;4803121;29;20926;-52
2024/03/12 01:39:16;;;;;;;18.00;16.60;;;7.40;1.00;;;;;;4803666;29;20457;-51
2024/03/12 01:41:42;;;;;;;17.80;16.40;;;7.40;99.90;;;;;;4803560;29;20485;-48
2024/03/12 01:44:08;;;;;;;18.13;16.70;;;7.40;99.90;;;;;;4810760;29;20427;-49
2024/03/12 01:46:35;;;;;;;16.63;15.37;;;7.40;99.90;;;;;;4803425;29;20423;-49
2024/03/12 01:49:05;;;;;;;19.10;17.10;;;7.40;99.90;;;;;;4800759;29;20829;-52
2024/03/12 01:51:31;;;;;;;17.70;16.30;;;7.40;50.40;;;;;;4802125;29;20450;-51
2024/03/12 01:53:58;;;;;;;17.83;16.40;;;7.40;99.90;;;;;;4812017;29;20474;-50
2024/03/12 01:56:26;;;;;;;16.83;15.53;;;7.40;1.00;;;;;;4805550;29;20428;-49
2024/03/12 01:58:52;;;;;;;18.20;16.80;;;7.40;1.00;;;;;;4803458;29;20450;-52
2024/03/12 02:01:21;;;;;;;16.57;15.30;;;7.30;1.00;;;;;;4808150;29;20442;-53
2024/03/12 02:03:48;;;;;;;17.47;16.17;;;7.30;1.00;;;;;;4807520;29;20922;-50
2024/03/12 02:06:14;;;;;;;16.77;15.57;;;7.30;1.00;;;;;;4814459;29;20424;-51
2024/03/12 02:08:40;;;;;;;17.50;16.10;;;7.30;1.00;;;;;;4811490;29;20866;-54
2024/03/12 02:11:05;;;;;;;16.93;15.63;;;7.30;1.00;;;;;;4802461;29;20190;-50
2024/03/12 02:13:31;;;;;;;16.90;15.63;;;7.30;1.00;;;;;;4804774;29;21346;-48
2024/03/12 02:15:57;;;;;;;19.03;17.23;;;7.30;1.00;;;;;;4810799;29;20202;-49
2024/03/12 02:18:23;;;;;;;19.40;17.80;;;7.30;1.00;;;;;;4800322;29;20199;-51
2024/03/12 02:20:49;;;;;;;20.50;18.60;;;7.30;1.00;;;;;;4812063;29;20426;-52
2024/03/12 02:23:14;;;;;;;19.53;17.60;;;7.30;1.00;;;;;;4806322;29;20776;-52
2024/03/12 02:25:42;;;;;;;22.07;18.27;;;7.30;1.00;;;;;;4813998;29;20190;-53
2024/03/12 02:28:08;;;;;;;20.00;18.27;;;7.30;1.00;;;;;;4806983;29;20193;-51
2024/03/12 02:30:34;;;;;;;18.57;17.00;;;7.20;1.00;;;;;;4807624;29;20846;-53
2024/03/12 02:33:02;;;;;;;18.87;17.17;;;7.20;1.00;;;;;;4811384;29;20201;-54
2024/03/12 02:35:28;;;;;;;18.00;16.53;;;7.30;1.00;;;;;;4808120;29;20451;-48
2024/03/12 02:37:54;;;;;;;18.30;16.80;;;7.20;1.00;;;;;;4805129;29;20610;-52
2024/03/12 02:40:20;;;;;;;18.87;16.80;;;7.20;1.00;;;;;;4812089;29;20449;-50
2024/03/12 02:42:46;;;;;;;18.33;16.83;;;7.20;29.30;;;;;;4807985;29;20213;-53
2024/03/12 02:45:14;;;;;;;18.43;17.00;;;7.20;99.90;;;;;;4803556;29;20452;-54
2024/03/12 02:47:41;;;;;;;17.63;16.33;;;7.10;99.90;;;;;;4803095;29;20190;-51
2024/03/12 02:50:08;;;;;;;18.03;16.63;;;7.10;1.00;;;;;;4814524;29;20546;-50
2024/03/12 02:52:33;;;;;;;17.50;16.07;;;7.10;99.90;;;;;;4804138;29;20431;-51
2024/03/12 02:55:00;;;;;;;18.10;16.60;;;7.10;99.90;;;;;;4812492;29;20437;-53
2024/03/12 02:57:26;;;;;;;18.00;16.50;;;7.10;99.90;;;;;;4806898;29;20643;-51
2024/03/12 02:59:52;;;;;;;16.90;15.50;;;7.10;99.90;;;;;;4813394;29;20435;-51
2024/03/12 03:02:18;;;;;;;17.10;15.73;;;7.10;99.90;;;;;;4809142;29;20471;-49
2024/03/12 03:04:44;;;;;;;17.53;16.13;;;7.10;99.90;;;;;;4808036;29;20435;-51
2024/03/12 03:07:11;;;;;;;16.50;15.20;;;7.10;99.90;;;;;;4802988;29;20517;-48
2024/03/12 03:09:37;;;;;;;16.87;15.57;;;7.10;99.90;;;;;;4811131;29;20193;-50
2024/03/12 03:12:02;;;;;;;16.37;15.00;;;7.10;1.00;;;;;;4809441;29;20466;-54
2024/03/12 03:14:28;;;;;;;16.73;15.43;;;7.10;1.00;;;;;;4802040;29;20482;-52
2024/03/12 03:16:54;;;;;;;17.00;15.53;;;7.00;1.00;;;;;;4793397;29;20195;-53
2024/03/12 03:19:20;;;;;;;17.00;15.80;;;7.00;1.00;;;;;;4803616;29;20198;-52
2024/03/12 03:21:46;;;;;;;16.00;14.80;;;7.00;1.00;;;;;;4813715;29;20486;-53
2024/03/12 03:24:11;;;;;;;16.80;15.60;;;7.00;1.00;;;;;;4808748;29;20420;-54
2024/03/12 03:26:37;;;;;;;16.87;15.50;;;6.90;1.00;;;;;;4813607;29;20305;-53
2024/03/12 03:29:03;;;;;;;15.10;14.10;;;6.90;1.00;;;;;;4799690;29;20855;-51
2024/03/12 03:31:29;;;;;;;15.67;14.37;;;6.90;1.00;;;;;;4803752;29;20439;-50
2024/03/12 03:33:58;;;;;;;15.60;14.30;;;6.90;1.00;;;;;;4809556;29;20457;-50
2024/03/12 03:36:24;;;;;;;16.40;15.10;;;6.90;1.00;;;;;;4813399;29;20186;-49
2024/03/12 03:38:50;;;;;;;16.53;15.33;;;6.90;1.00;;;;;;4804796;29;20422;-53
2024/03/12 03:41:15;;;;;;;16.60;15.30;;;6.90;1.00;;;;;;4812565;29;20942;-54
2024/03/12 03:43:42;;;;;;;16.03;14.73;;;6.90;1.00;;;;;;4804554;29;21050;-52
2024/03/12 03:46:08;;;;;;;16.83;15.50;;;6.90;1.00;;;;;;4812223;29;20645;-54
2024/03/12 03:48:34;;;;;;;18.40;16.13;;;7.00;1.00;;;;;;4802529;29;20431;-48
2024/03/12 03:51:01;;;;;;;17.33;15.60;;;6.90;1.00;;;;;;4812573;29;20194;-49
2024/03/12 03:53:27;;;;;;;17.70;15.93;;;6.90;1.00;;;;;;4804548;29;20444;-50
2024/03/12 03:55:54;;;;;;;16.57;15.30;;;6.90;1.00;;;;;;4811975;29;20431;-48
2024/03/12 03:58:22;;;;;;;15.83;14.63;;;7.00;1.00;;;;;;4789632;29;20440;-40
2024/03/12 04:00:50;;;;;;;16.70;15.20;;;7.00;1.00;;;;;;4803069;29;20438;-39
2024/03/12 04:03:16;;;;;;;15.50;14.20;;;7.00;1.00;;;;;;4804009;29;21001;-42
2024/03/12 04:05:42;;;;;;;17.10;15.70;;;7.00;1.00;;;;;;4810323;29;20468;-43
2024/03/12 04:08:08;;;;;;;15.73;14.60;;;7.00;1.00;;;;;;4805911;29;21240;-42
2024/03/12 04:10:34;;;;;;;16.77;15.47;;;7.00;1.00;;;;;;4808634;29;20198;-50
2024/03/12 04:13:00;;;;;;;16.47;15.27;;;7.00;1.00;;;;;;4803686;29;20644;-43
2024/03/12 04:15:28;;;;;;;15.77;14.73;;;7.00;1.00;;;;;;4808976;29;20275;-43
2024/03/12 04:17:54;;;;;;;16.10;14.90;;;7.00;1.00;;;;;;4810352;29;20462;-40
2024/03/12 04:20:21;;;;;;;17.37;15.97;;;7.00;1.00;;;;;;4806350;29;20871;-45
2024/03/12 04:22:47;;;;;;;15.40;14.10;;;7.00;1.00;;;;;;4801066;29;20462;-45
2024/03/12 04:25:15;;;;;;;17.07;15.67;;;7.00;1.00;;;;;;4807051;29;20434;-44
2024/03/12 04:27:41;;;;;;;16.40;15.10;;;7.00;1.00;;;;;;4803021;29;20816;-42
2024/03/12 04:30:11;;;;;;;15.63;14.47;;;7.00;1.00;;;;;;4797352;29;20868;-44
2024/03/12 04:32:40;;;;;;;17.20;15.80;;;7.00;1.00;;;;;;4800262;29;20519;-43
2024/03/12 04:35:09;;;;;;;16.20;14.90;;;7.00;1.00;;;;;;4808311;29;20534;-47
2024/03/12 04:37:35;;;;;;;15.87;14.57;;;7.00;1.00;;;;;;4812242;29;20441;-42
2024/03/12 04:40:08;;;;;;;16.13;14.73;;;7.00;1.00;;;;;;4806415;29;20815;-53
2024/03/12 04:42:37;;;;;;;16.17;15.00;;;7.00;1.00;;;;;;4812996;29;20202;-49
2024/03/12 04:45:04;;;;;;;16.00;14.67;;;7.00;1.00;;;;;;4796688;29;20435;-54
2024/03/12 04:47:31;;;;;;;15.63;14.43;;;7.00;1.00;;;;;;4779983;29;20511;-54
2024/03/12 04:49:57;;;;;;;15.30;14.10;;;6.90;1.00;;;;;;4806654;29;20455;-51
2024/03/12 04:52:22;;;;;;;15.77;14.47;;;6.90;1.00;;;;;;4812834;29;20507;-54
2024/03/12 04:54:48;;;;;;;14.97;13.83;;;7.00;1.00;;;;;;4811275;29;20213;-49
2024/03/12 04:57:14;;;;;;;16.60;15.00;;;6.90;1.00;;;;;;4806083;29;20205;-55
2024/03/12 04:59:39;;;;;;;16.13;14.67;;;6.90;1.00;;;;;;4803282;29;20266;-52
2024/03/12 05:02:05;;;;;;;14.97;13.57;;;6.90;1.00;;;;;;4805910;29;20206;-48
2024/03/12 05:04:30;;;;;;;15.07;13.70;;;6.90;1.00;;;;;;4803748;29;20205;-54
2024/03/12 05:06:56;;;;;;;15.97;14.47;;;6.90;1.00;;;;;;4799628;29;20191;-53
2024/03/12 05:09:23;;;;;;;16.13;14.73;;;6.90;1.00;;;;;;4808021;29;20201;-50
2024/03/12 05:11:49;;;;;;;16.17;14.87;;;6.90;1.00;;;;;;4806875;29;20434;-53
2024/03/12 05:14:15;;;;;;;15.57;14.27;;;6.90;1.00;;;;;;4796274;29;20484;-51
2024/03/12 05:16:41;;;;;;;15.83;14.63;;;6.90;1.00;;;;;;4801901;29;20440;-51
2024/03/12 05:19:10;;;;;;;15.80;14.60;;;6.90;1.00;;;;;;4807710;29;20489;-51
2024/03/12 05:21:36;;;;;;;15.00;13.83;;;6.90;1.00;;;;;;4811824;29;20895;-52
2024/03/12 05:24:03;;;;;;;15.57;14.27;;;6.90;1.00;;;;;;4801376;29;20439;-50
2024/03/12 05:26:29;;;;;;;15.17;13.80;;;6.90;1.00;;;;;;4810343;29;20431;-47
2024/03/12 05:28:58;;;;;;;16.90;15.60;;;6.90;1.00;;;;;;4797490;29;20453;-52
2024/03/12 05:31:37;;;;;;;15.30;14.00;;;6.90;1.00;;;;;;4801292;29;20922;-52
2024/03/12 05:34:03;;;;;;;15.07;13.73;;;6.90;1.00;;;;;;4811190;29;20430;-54
2024/03/12 05:36:41;;;;;;;16.13;14.67;;;6.90;1.00;;;;;;4803356;29;20434;-52
2024/03/12 05:39:18;;;;;;;15.27;14.00;;;6.90;1.00;;;;;;4783282;29;20236;-52
2024/03/12 05:41:49;;;;;;;15.97;14.40;;;6.90;1.00;;;;;;4787528;29;20448;-49
2024/03/12 05:49:44;;;;;;;16.07;14.80;;;7.00;1.00;;;;;;4807726;29;20942;-52
2024/03/12 05:52:11;;;;;;;16.00;14.50;;;7.00;1.00;;;;;;4811022;29;20783;-51
2024/03/12 05:54:37;;;;;;;16.17;15.00;;;7.00;1.00;;;;;;4804128;29;20636;-47
2024/03/12 05:57:02;;;;;;;16.53;15.27;;;7.00;1.00;;;;;;4797439;29;20776;-51
2024/03/12 05:59:28;;;;;;;16.30;15.10;;;7.10;1.00;;;;;;4801891;29;20219;-48
2024/03/12 06:01:54;;;;;;;16.17;14.90;;;7.10;1.00;;;;;;4797119;29;20316;-47
2024/03/12 06:04:19;;;;;;;15.80;14.50;;;7.20;1.00;;;;;;4801094;29;20195;-51
2024/03/12 06:06:46;;;;;;;16.50;15.00;;;7.20;1.00;;;;;;4797386;29;20193;-47
2024/03/12 06:09:11;;;;;;;17.50;15.90;;;7.30;1.00;;;;;;4810804;29;20197;-47
2024/03/12 06:11:37;;;;;;;17.10;15.63;;;7.40;1.00;;;;;;4798322;29;20947;-44
2024/03/12 06:14:05;;;;;;;16.50;15.20;;;7.40;1.00;;;;;;4810437;29;20259;-47
2024/03/12 06:16:32;;;;;;;16.23;14.70;;;7.50;1.00;;;;;;4799111;29;20197;-44
2024/03/12 06:18:58;;;;;;;18.33;15.97;;;7.50;1.00;;;;;;4810691;29;20422;-47
2024/03/12 06:21:23;;;;;;;18.10;16.60;;;7.50;1.00;;;;;;4801578;29;20435;-51
2024/03/12 06:23:49;;;;;;;16.83;15.30;;;7.60;1.00;;;;;;4805526;29;20490;-45
2024/03/12 06:26:15;;;;;;;18.03;16.50;;;7.60;1.00;;;;;;4807256;29;20494;-53
2024/03/12 06:28:40;;;;;;;17.60;16.20;;;7.70;1.00;;;;;;4810661;29;20697;-45
2024/03/12 06:31:06;;;;;;;17.63;16.17;;;7.70;99.90;;;;;;4796837;29;20201;-46
2024/03/12 06:33:32;;;;;;;17.80;16.23;;;7.70;99.90;;;;;;4799842;29;20198;-51
2024/03/12 06:35:58;;;;;;;17.73;16.23;;;7.80;99.90;;;;;;4809732;29;20201;-46
2024/03/12 06:38:24;;;;;;;17.80;16.20;;;7.90;99.90;;;;;;4810708;29;20423;-45
2024/03/12 06:40:49;;;;;;;17.20;15.90;;;7.90;99.90;;;;;;4809782;29;20277;-53
2024/03/12 06:43:17;;;;;;;16.57;15.27;;;7.80;99.90;;;;;;4805198;29;20509;-45
2024/03/12 06:45:43;;;;;;;15.50;14.30;;;7.80;99.90;;;;;;4805819;29;20179;-48
2024/03/12 06:48:10;;;;;;;16.43;15.00;;;7.90;99.90;;;;;;4803551;29;20906;-52
2024/03/12 06:50:36;;;;;;;15.63;14.30;;;7.90;99.90;;;;;;4810588;29;20440;-49
2024/03/12 06:53:01;;;;;;;16.70;15.30;;;8.00;99.90;;;;;;4807530;29;20493;-50
2024/03/12 06:55:27;;;;;;;17.47;15.90;;;8.00;55.40;;;;;;4808309;29;20198;-47
2024/03/12 06:58:02;;;;;;;19.83;18.03;;;8.10;1.00;;;;;;4798155;29;20619;-49
2024/03/12 07:00:44;;;;;;;18.93;17.13;;;8.20;99.90;;;;;;4803386;29;20201;-46
2024/03/12 07:03:10;;;;;;;19.17;17.60;;;8.20;1.00;;;;;;4786075;29;20478;-50
2024/03/12 07:05:43;;;;;;;19.13;17.63;;;8.20;1.00;;;;;;4813396;29;20426;-46
2024/03/12 07:08:10;;;;;;;17.93;16.47;;;8.30;99.90;;;;;;4813779;29;20178;-46
2024/03/12 07:10:40;;;;;;;17.17;15.57;;;8.40;99.90;;;;;;4809434;29;20798;-47
2024/03/12 07:13:07;;;;;;;18.80;17.00;;;8.50;99.90;;;;;;4809642;29;20427;-46
2024/03/12 07:15:35;;;;;;;17.30;15.80;;;8.60;1.00;;;;;;4810152;29;20482;-51
2024/03/12 07:18:03;;;;;;;17.33;16.03;;;8.60;99.90;;;;;;4803381;29;20443;-52
2024/03/12 07:20:29;;;;;;;18.00;16.50;;;8.70;19.50;;;;;;4812910;29;20427;-50
2024/03/12 07:22:58;;;;;;;17.00;15.40;;;8.80;1.00;;;;;;4802167;29;20506;-47
2024/03/12 07:25:25;;;;;;;18.00;16.60;;;8.80;99.90;;;;;;4811302;29;20443;-50
2024/03/12 07:27:55;;;;;;;18.53;17.07;;;8.90;99.90;;;;;;4803080;29;20447;-48
2024/03/12 07:30:21;;;;;;;17.60;16.00;;;9.00;1.00;;;;;;4786905;29;20452;-50
2024/03/12 07:32:47;;;;;;;19.50;17.60;;;9.00;1.00;;;;;;4805153;29;20936;-52
2024/03/12 07:35:13;;;;;;;18.83;17.33;;;9.10;1.00;;;;;;4813039;29;20190;-54
2024/03/12 07:37:40;;;;;;;18.17;16.57;;;9.20;1.00;;;;;;4790548;29;20438;-50
2024/03/12 07:40:11;;;;;;;19.47;17.77;;;9.30;99.90;;;;;;4812485;29;20511;-43
2024/03/12 07:42:41;;;;;;;17.90;16.30;;;9.40;1.00;;;;;;4808300;29;20860;-42
2024/03/12 07:45:09;;;;;;;17.87;16.27;;;9.50;1.00;;;;;;4812375;29;20431;-39
2024/03/12 07:47:35;;;;;;;19.53;17.77;;;9.60;99.90;;;;;;4812629;29;20446;-40
2024/03/12 07:50:02;;;;;;;17.33;15.90;;;9.70;99.90;;;;;;4812815;29;20439;-42
2024/03/12 07:52:29;;;;;;;19.37;17.77;;;9.70;1.00;;;;;;4810898;29;20459;-41
2024/03/12 07:54:56;;;;;;;18.97;17.37;;;9.80;1.00;;;;;;4808150;29;20440;-41
2024/03/12 07:57:21;;;;;;;20.93;19.13;;;9.90;1.00;;;;;;4796596;29;20550;-45
2024/03/12 07:59:47;;;;;;;22.00;20.00;;;10.00;99.90;;;;;;4811220;29;20458;-46
2024/03/12 08:02:15;;;;;;;20.23;18.53;;;10.10;99.90;;;;;;4806021;29;20678;-42
2024/03/12 08:04:42;;;;;;;22.70;20.70;;;10.20;1.00;;;;;;4796312;29;20658;-40
2024/03/12 08:07:20;;;;;;;18.37;16.77;;;10.30;1.00;;;;;;4798031;29;21034;-43
2024/03/12 08:09:49;;;;;;;17.90;16.40;;;10.40;1.00;;;;;;4801162;29;20815;-43
2024/03/12 08:12:17;;;;;;;17.50;15.90;;;10.40;1.00;;;;;;4805202;29;20585;-44
2024/03/12 08:14:43;;;;;;;18.73;17.30;;;10.50;99.90;;;;;;4809490;29;20479;-46
2024/03/12 08:17:12;;;;;;;20.33;18.77;;;10.50;99.90;;;;;;4803938;29;20931;-49
2024/03/12 08:19:38;;;;;;;20.20;18.63;;;10.50;99.90;;;;;;4810799;29;20434;-47
2024/03/12 08:22:03;;;;;;;24.27;22.20;;;10.60;99.90;;;;;;4811820;29;20988;-50
2024/03/12 08:24:29;;;;;;;19.70;18.10;;;10.60;99.90;;;;;;4811882;29;20795;-49
2024/03/12 08:26:56;;;;;;;18.30;16.70;;;10.60;99.90;;;;;;4805483;29;20261;-51
2024/03/12 08:29:23;;;;;;;18.70;17.03;;;10.60;99.90;;;;;;4790571;29;20436;-47
2024/03/12 08:31:48;;;;;;;17.27;15.87;;;10.70;99.90;;;;;;4805592;29;20547;-45
2024/03/12 08:34:15;;;;;;;17.60;16.23;;;10.80;99.90;;;;;;4802168;29;20427;-49
2024/03/12 08:36:46;;;;;;;17.93;16.07;;;10.90;99.90;;;;;;4811999;29;20717;-47
2024/03/12 08:39:11;;;;;;;18.73;17.13;;;11.10;99.90;;;;;;4808893;29;20911;-44
2024/03/12 08:41:41;;;;;;;17.77;16.37;;;11.10;99.90;;;;;;4809718;29;20489;-44
2024/03/12 08:44:07;;;;;;;17.90;16.50;;;11.20;72.70;;;;;;4798671;29;20200;-48
2024/03/12 08:46:33;;;;;;;17.40;16.00;;;11.30;5.00;;;;;;4805575;29;20772;-47
2024/03/12 08:48:59;;;;;;;18.27;16.73;;;11.40;1.00;;;;;;4803702;29;20451;-48
2024/03/12 08:51:25;;;;;;;18.50;16.70;;;11.50;1.00;;;;;;4811898;29;20549;-47
2024/03/12 08:53:51;;;;;;;17.53;16.13;;;11.60;1.00;;;;;;4804898;29;20423;-49
2024/03/12 08:56:19;;;;;;;16.90;15.50;;;11.70;1.00;;;;;;4802592;29;20462;-47
2024/03/12 08:58:45;;;;;;;18.50;16.90;;;11.70;1.00;;;;;;4804299;29;20358;-50
2024/03/12 09:01:10;;;;;;;18.37;16.93;;;11.80;1.00;;;;;;4807588;29;20456;-53
2024/03/12 09:03:36;;;;;;;18.43;17.03;;;11.90;1.00;;;;;;4784406;29;20493;-47
2024/03/12 09:06:02;;;;;;;16.87;15.67;;;12.00;1.00;;;;;;4810755;29;20200;-48
2024/03/12 09:08:29;;;;;;;15.53;14.20;;;12.10;1.00;;;;;;4801351;29;20197;-42
2024/03/12 09:10:55;;;;;;;17.47;16.10;;;12.20;1.00;;;;;;4779793;29;20221;-41
2024/03/12 09:13:21;;;;;;;16.53;15.20;;;12.40;1.00;;;;;;4805474;29;20475;-40
2024/03/12 09:15:51;;;;;;;16.90;15.60;;;12.40;1.00;;;;;;4808828;29;20190;-44
2024/03/12 09:18:20;;;;;;;16.20;14.87;;;12.50;1.00;;;;;;4790209;29;20432;-43
2024/03/12 09:20:47;;;;;;;15.87;14.77;;;12.60;1.00;;;;;;4806159;29;20956;-41
2024/03/12 09:23:13;;;;;;;14.53;13.53;;;12.60;1.00;;;;;;4808181;29;20563;-47
2024/03/12 09:25:41;;;;;;;13.93;12.90;;;12.80;1.00;;;;;;4810774;29;20471;-42
2024/03/12 09:28:07;;;;;;;14.60;13.60;;;12.90;1.00;;;;;;4809032;29;20791;-43
2024/03/12 09:30:34;;;;;;;13.53;12.40;;;12.90;1.00;;;;;;4804706;29;20439;-43
2024/03/12 09:33:00;;;;;;;14.10;13.07;;;12.90;1.00;;;;;;4800671;29;20419;-42
2024/03/12 09:35:26;;;;;;;12.83;12.13;;;12.90;1.00;;;;;;4806756;29;20439;-49
2024/03/12 09:37:52;;;;;;;13.10;12.30;;;13.00;99.90;;;;;;4811179;29;20462;-52
2024/03/12 09:40:17;;;;;;;13.73;12.87;;;13.00;99.90;;;;;;4800473;29;20440;-46
2024/03/12 09:42:45;;;;;;;13.17;12.33;;;13.10;99.90;;;;;;4807693;29;20213;-44
2024/03/12 09:45:11;;;;;;;12.67;11.87;;;13.10;99.90;;;;;;4798869;29;20228;-47
2024/03/12 09:47:39;;;;;;;12.90;12.10;;;13.20;99.90;;;;;;4811000;29;20427;-45
2024/03/12 09:50:10;;;;;;;13.30;12.40;;;13.30;99.90;;;;;;4792032;29;20194;-43
2024/03/12 09:52:40;;;;;;;12.50;11.70;;;13.30;99.90;;;;;;4801688;29;20435;-42
2024/03/12 09:55:10;;;;;;;12.67;11.83;;;13.10;99.90;;;;;;4799742;29;21016;-50
2024/03/12 09:57:44;;;;;;;13.87;12.97;;;13.10;99.90;;;;;;4804497;29;20435;-46
2024/03/12 10:00:15;;;;;;;12.93;11.97;;;13.20;99.90;;;;;;4799224;29;20419;-40
2024/03/12 10:02:41;;;;;;;13.30;12.40;;;13.20;99.90;;;;;;4800657;29;20464;-40
2024/03/12 10:05:09;;;;;;;12.70;11.73;;;13.30;99.90;;;;;;4802981;29;20438;-43
2024/03/12 10:07:36;;;;;;;14.67;13.67;;;13.30;99.90;;;;;;4810604;29;20454;-51
2024/03/12 10:10:09;;;;;;;13.67;12.57;;;13.20;99.90;;;;;;4804788;29;21366;-48
2024/03/12 10:12:35;;;;;;;14.70;13.80;;;13.30;99.90;;;;;;4810636;29;20426;-51
2024/03/12 10:15:01;;;;;;;14.27;13.27;;;13.40;99.90;;;;;;4805792;29;20482;-52
2024/03/12 10:17:26;;;;;;;14.23;13.17;;;13.40;99.90;;;;;;4800469;29;20900;-52
2024/03/12 10:20:07;;;;;;;13.10;12.20;;;13.50;99.90;;;;;;4807073;29;20443;-49
2024/03/12 10:22:33;;;;;;;13.67;12.77;;;13.50;99.90;;;;;;4810028;29;20225;-43
2024/03/12 10:25:10;;;;;;;13.83;12.93;;;13.50;99.90;;;;;;4812642;29;20916;-46
2024/03/12 10:27:55;;;;;;;14.27;13.30;;;13.60;99.90;;;;;;4813992;29;20193;-43
2024/03/12 10:30:25;;;;;;;13.00;12.20;;;13.50;99.90;;;;;;4813011;29;20426;-43
2024/03/12 10:32:51;;;;;;;13.67;12.77;;;13.40;99.90;;;;;;4813764;29;21260;-45
2024/03/12 10:35:19;;;;;;;13.60;12.60;;;13.30;99.90;;;;;;4799765;29;20435;-43
2024/03/12 10:37:50;;;;;;;14.67;13.67;;;13.20;99.90;;;;;;4814040;29;20202;-45
2024/03/12 10:40:19;;;;;;;14.00;13.00;;;13.20;99.90;;;;;;4806327;29;20462;-46
2024/03/12 10:43:00;;;;;;;13.60;12.70;;;13.40;99.90;;;;;;4812434;29;20470;-43
2024/03/12 10:45:27;;;;;;;13.20;12.40;;;13.60;99.90;;;;;;4804167;29;21005;-40
2024/03/12 10:47:54;;;;;;;13.70;12.90;;;13.70;99.90;;;;;;4813830;29;20512;-42
2024/03/12 10:50:23;;;;;;;14.30;13.40;;;13.80;99.90;;;;;;4805706;29;20456;-39
2024/03/12 10:52:54;;;;;;;14.73;13.73;;;13.80;99.90;;;;;;4812892;29;20442;-44
2024/03/12 10:55:21;;;;;;;13.53;12.63;;;13.90;99.90;;;;;;4807318;29;20458;-46
2024/03/12 10:57:50;;;;;;;12.93;12.10;;;14.10;99.90;;;;;;4805847;29;20911;-41
2024/03/12 11:00:20;;;;;;;14.23;13.33;;;14.10;99.90;;;;;;4809889;29;20435;-46
2024/03/12 11:02:50;;;;;;;14.07;13.17;;;13.90;99.90;;;;;;4805105;29;20530;-43
2024/03/12 11:05:25;;;;;;;13.27;12.27;;;13.90;99.90;;;;;;4811756;29;20985;-41
2024/03/12 11:07:52;;;;;;;12.90;12.00;;;13.90;99.90;;;;;;4801376;29;20827;-41
2024/03/12 11:10:19;;;;;;;15.13;13.80;;;14.10;99.90;;;;;;4810760;29;21073;-41
2024/03/12 11:12:45;;;;;;;14.07;13.17;;;14.10;99.90;;;;;;4795827;29;20436;-47
2024/03/12 11:15:10;;;;;;;14.40;13.40;;;14.20;99.90;;;;;;4800442;29;20527;-44
2024/03/12 11:17:40;;;;;;;13.23;12.43;;;14.10;99.90;;;;;;4807144;29;20628;-41
2024/03/12 11:20:06;;;;;;;14.20;13.30;;;14.30;99.90;;;;;;4810073;29;21018;-41
2024/03/12 11:22:35;;;;;;;14.87;13.80;;;14.40;99.90;;;;;;4812758;29;20534;-48
2024/03/12 11:25:08;;;;;;;14.47;13.57;;;14.50;99.90;;;;;;4807124;29;20533;-41
2024/03/12 11:27:36;;;;;;;14.30;13.40;;;14.50;99.90;;;;;;4801006;29;20516;-41
2024/03/12 11:30:10;;;;;;;15.77;14.60;;;14.60;99.90;;;;;;4796710;29;20460;-42
2024/03/12 11:32:42;;;;;;;15.00;13.80;;;14.90;99.90;;;;;;4809551;29;20842;-46
2024/03/12 11:35:29;;;;;;;13.80;12.90;;;15.00;99.90;;;;;;4808665;29;20677;-47
2024/03/12 11:38:00;;;;;;;15.83;14.87;;;15.20;99.90;;;;;;4812474;29;20526;-44
2024/03/12 11:40:37;;;;;;;15.50;14.40;;;15.20;99.90;;;;;;4808993;29;20442;-44
2024/03/12 11:43:04;;;;;;;14.53;13.60;;;15.30;99.90;;;;;;4812534;29;20523;-49
2024/03/12 11:45:45;;;;;;;16.07;14.77;;;15.50;99.90;;;;;;4793370;29;20609;-43
2024/03/12 11:48:13;;;;;;;15.60;14.60;;;15.70;99.90;;;;;;4797121;29;20922;-42
2024/03/12 11:50:40;;;;;;;16.10;15.00;;;15.80;99.90;;;;;;4798182;29;20502;-40
2024/03/12 11:53:28;;;;;;;15.10;14.20;;;15.80;99.90;;;;;;4812204;29;20534;-44
2024/03/12 11:56:05;;;;;;;15.50;14.47;;;15.90;99.90;;;;;;4799385;29;20931;-42
2024/03/12 11:58:33;;;;;;;16.03;15.03;;;16.10;99.90;;;;;;4809166;29;20439;-42
2024/03/12 12:01:02;;;;;;;15.10;14.20;;;16.00;99.90;;;;;;4807286;29;20428;-51
2024/03/12 12:03:28;;;;;;;15.20;14.20;;;16.00;99.90;;;;;;4799466;29;20573;-51
2024/03/12 12:05:54;;;;;;;15.10;14.17;;;16.10;99.90;;;;;;4807187;29;20508;-51
2024/03/12 12:08:21;;;;;;;15.37;14.37;;;16.10;99.90;;;;;;4810920;29;20241;-50
2024/03/12 12:11:03;;;;;;;15.07;13.80;;;16.30;99.90;;;;;;4810778;29;20904;-51
2024/03/12 12:13:32;;;;;;;15.40;14.50;;;16.60;99.90;;;;;;4800769;29;20616;-50
2024/03/12 12:16:02;;;;;;;15.13;13.77;;;17.00;99.90;;;;;;4809936;29;20457;-50
2024/03/12 12:18:33;;;;;;;14.20;13.30;;;17.00;99.90;;;;;;4812092;29;20427;-49
2024/03/12 12:21:16;;;;;;;15.33;14.23;;;17.30;99.90;;;;;;4802876;29;20434;-47
2024/03/12 12:23:46;;;;;;;16.43;15.43;;;17.60;99.90;;;;;;4803361;29;20483;-51
2024/03/12 12:26:18;;;;;;;15.27;14.27;;;17.80;99.90;;;;;;4811433;29;20790;-52
2024/03/12 12:28:46;;;;;;;14.80;13.80;;;18.00;99.90;;;;;;4811224;29;20855;-51
2024/03/12 12:31:16;;;;;;;14.83;14.03;;;18.60;99.90;;;;;;4798996;29;20786;-46
2024/03/12 12:33:48;;;;;;;13.93;13.13;;;18.40;99.90;;;;;;4809587;29;20433;-49
2024/03/12 12:36:14;;;;;;;15.63;14.37;;;18.50;99.90;;;;;;4809705;29;21039;-48
2024/03/12 12:38:44;;;;;;;15.10;14.10;;;18.60;99.90;;;;;;4811890;29;20443;-45
2024/03/12 12:41:13;;;;;;;14.50;13.60;;;19.00;99.90;;;;;;4810477;29;20428;-47
2024/03/12 12:43:42;;;;;;;14.63;13.73;;;19.20;99.90;;;;;;4811406;29;20973;-50
2024/03/12 12:46:16;;;;;;;15.27;14.37;;;19.60;99.90;;;;;;4802715;29;20448;-48